.
WxDataArchive / Data Records for 2013-08-25
2013-08-24 August 2013 2013-08-26

Data Records for Sunday, 25 August 2013

Time	Temp	Chill	HIndex	Humid	Dewpt	 Wind 	HiWind	WindDir	Rain 	Barom 
-----	----	-----	------	-----	-----	------	------	-------	-----	----- 
00:00	66.6	66.6	66.6	73	57.7	0	2	112	0.00	30.236 
00:05	66.3	66.3	66.3	73	57.4	0	2	112	0.00	30.236 
00:10	66.1	66.1	66.1	74	57.6	0	2	112	0.00	30.236 
00:15	65.8	65.8	65.8	75	57.6	0	1	112	0.00	30.246 
00:20	65.6	65.6	65.6	76	57.8	0	1	112	0.00	30.246 
00:25	65.5	65.5	65.5	76	57.7	0	1	90	0.00	30.246 
00:30	65.3	65.3	65.3	77	57.9	0	2	112	0.00	30.247 
00:35	65.0	65.0	65.0	77	57.6	0	1	112	0.00	30.247 
00:40	64.8	64.8	64.8	78	57.8	0	1	112	0.00	30.247 
00:45	64.5	64.5	64.5	78	57.5	0	0	---	0.00	30.243 
00:50	64.2	64.2	64.2	79	57.5	0	0	---	0.00	30.243 
00:55	63.9	63.9	63.9	79	57.3	0	0	---	0.00	30.243 
01:00	63.7	63.7	63.7	81	57.8	0	1	90	0.00	30.244 
01:05	63.4	63.4	63.4	81	57.5	0	0	---	0.00	30.244 
01:10	63.1	63.1	63.1	81	57.2	0	0	---	0.00	30.244 
01:15	62.9	62.9	62.9	83	57.7	0	1	112	0.00	30.244 
01:20	62.9	62.9	62.9	83	57.7	0	1	112	0.00	30.244 
01:25	62.7	62.7	62.7	83	57.5	0	0	---	0.00	30.244 
01:30	62.7	62.7	62.7	84	57.8	0	1	112	0.00	30.244 
01:35	62.6	62.6	62.6	84	57.7	0	0	---	0.00	30.244 
01:40	62.4	62.4	62.4	84	57.5	0	0	---	0.00	30.244 
01:45	62.1	62.1	62.1	84	57.2	0	0	---	0.00	30.239 
01:50	62.0	62.0	62.0	84	57.1	0	0	---	0.00	30.239 
01:55	61.6	61.6	61.6	85	57.0	0	0	---	0.00	30.239 
02:00	61.5	61.5	61.5	85	56.9	0	0	---	0.00	30.244 
02:05	61.3	61.3	61.3	85	56.7	0	0	---	0.00	30.244 
02:10	61.2	61.2	61.2	86	57.0	0	0	---	0.00	30.244 
02:15	61.0	61.0	61.0	86	56.8	0	0	---	0.00	30.241 
02:20	60.9	60.9	60.9	87	57.0	0	0	---	0.00	30.241 
02:25	60.7	60.7	60.7	87	56.8	0	0	---	0.00	30.241 
02:30	60.5	60.5	60.5	87	56.6	0	0	---	0.00	30.238 
02:35	60.4	60.4	60.4	88	56.8	0	0	---	0.00	30.238 
02:40	60.2	60.2	60.2	88	56.6	0	0	---	0.00	30.238 
02:45	60.2	60.2	60.2	88	56.6	0	0	---	0.00	30.240 
02:50	60.1	60.1	60.1	88	56.5	0	0	---	0.00	30.240 
02:55	59.9	59.9	59.9	89	56.6	0	0	---	0.00	30.240 
03:00	59.9	59.9	59.9	89	56.6	0	0	---	0.00	30.245 
03:05	59.9	59.9	59.9	89	56.6	0	0	---	0.00	30.245 
03:10	59.8	59.8	59.8	89	56.5	0	0	---	0.00	30.245 
03:15	59.8	59.8	59.8	89	56.5	0	0	---	0.00	30.245 
03:20	59.6	59.6	59.6	90	56.7	0	0	---	0.00	30.245 
03:25	59.6	59.6	59.6	90	56.7	0	0	---	0.00	30.245 
03:30	59.5	59.5	59.5	90	56.6	0	0	---	0.00	30.248 
03:35	59.5	59.5	59.5	90	56.6	0	0	---	0.00	30.248 
03:40	59.3	59.3	59.3	90	56.4	0	0	---	0.00	30.248 
03:45	59.3	59.3	59.3	90	56.4	0	0	---	0.00	30.253 
03:50	59.2	59.2	59.2	91	56.6	0	0	---	0.00	30.253 
03:55	59.0	59.0	59.0	91	56.4	0	0	---	0.00	30.253 
04:00	59.0	59.0	59.0	91	56.4	0	0	---	0.00	30.255 
04:05	59.0	59.0	59.0	91	56.4	0	0	---	0.00	30.255 
04:10	59.0	59.0	59.0	91	56.4	0	0	---	0.00	30.255 
04:15	58.9	58.9	58.9	91	56.3	0	0	---	0.00	30.253 
04:20	58.9	58.9	58.9	91	56.3	0	0	---	0.00	30.253 
04:25	58.9	58.9	58.9	91	56.3	0	0	---	0.00	30.253 
04:30	58.9	58.9	58.9	92	56.6	0	0	---	0.00	30.253 
04:35	59.0	59.0	59.0	92	56.7	0	0	---	0.00	30.253 
04:40	59.0	59.0	59.0	92	56.7	0	0	---	0.00	30.253 
04:45	59.0	59.0	59.0	92	56.7	0	0	---	0.00	30.254 
04:50	59.0	59.0	59.0	91	56.4	0	0	---	0.00	30.254 
04:55	59.0	59.0	59.0	91	56.4	0	0	---	0.00	30.254 
05:00	58.9	58.9	58.9	91	56.3	0	0	---	0.00	30.255 
05:05	58.7	58.7	58.7	91	56.1	0	0	---	0.00	30.255 
05:10	58.9	58.9	58.9	92	56.6	0	0	---	0.00	30.255 
05:15	58.9	58.9	58.9	92	56.6	0	0	---	0.00	30.258 
05:20	58.9	58.9	58.9	91	56.3	0	0	---	0.00	30.258 
05:25	58.9	58.9	58.9	91	56.3	0	0	---	0.00	30.258 
05:30	58.9	58.9	58.9	91	56.3	0	0	---	0.00	30.259 
05:35	58.7	58.7	58.7	91	56.1	0	0	---	0.00	30.259 
05:40	58.4	58.4	58.4	91	55.8	0	0	---	0.00	30.259 
05:45	58.3	58.3	58.3	91	55.7	0	0	---	0.00	30.259 
05:50	58.3	58.3	58.3	91	55.7	0	0	---	0.00	30.259 
05:55	58.1	58.1	58.1	91	55.5	0	0	---	0.00	30.259 
06:00	58.0	58.0	58.0	91	55.4	0	0	---	0.00	30.266 
06:05	57.8	57.8	57.8	91	55.2	0	0	---	0.00	30.266 
06:10	57.6	57.6	57.6	92	55.3	0	0	---	0.00	30.266 
06:15	57.6	57.6	57.6	92	55.3	0	0	---	0.00	30.268 
06:20	57.5	57.5	57.5	92	55.2	0	0	---	0.00	30.268 
06:25	57.3	57.3	57.3	92	55.0	0	0	---	0.00	30.268 
06:30	57.2	57.2	57.2	92	54.9	0	0	---	0.00	30.267 
06:35	57.0	57.0	57.0	92	54.7	0	0	---	0.00	30.267 
06:40	56.9	56.9	56.9	92	54.6	0	0	---	0.00	30.267 
06:45	56.9	56.9	56.9	92	54.6	0	0	---	0.00	30.272 
06:50	56.7	56.7	56.7	92	54.4	0	0	---	0.00	30.272 
06:55	56.6	56.6	56.6	92	54.3	0	0	---	0.00	30.272 
07:00	56.5	56.5	56.5	92	54.2	0	0	---	0.00	30.274 
07:05	56.5	56.5	56.5	92	54.2	0	0	---	0.00	30.274 
07:10	56.5	56.5	56.5	92	54.2	0	0	---	0.00	30.274 
07:15	56.5	56.5	56.5	92	54.2	0	0	---	0.00	30.281 
07:20	56.5	56.5	56.5	93	54.5	0	0	---	0.00	30.281 
07:25	56.5	56.5	56.5	93	54.5	0	0	---	0.00	30.281 
07:30	56.5	56.5	56.5	93	54.5	0	0	---	0.00	30.285 
07:35	56.6	56.6	56.6	93	54.6	0	0	---	0.00	30.285 
07:40	56.6	56.6	56.6	93	54.6	0	0	---	0.00	30.285 
07:45	56.7	56.7	56.7	93	54.7	0	0	---	0.00	30.280 
07:50	57.0	57.0	57.0	93	55.0	0	0	---	0.00	30.280 
07:55	57.5	57.5	57.5	94	55.8	0	0	---	0.00	30.280 
08:00	58.0	58.0	58.0	94	56.3	0	0	---	0.00	30.279 
08:05	58.6	58.6	58.6	94	56.9	0	0	---	0.00	30.279 
08:10	59.3	59.3	59.3	94	57.6	0	0	---	0.00	30.279 
08:15	60.1	60.1	60.1	94	58.4	0	0	---	0.00	30.280 
08:20	61.0	61.0	61.0	93	59.0	0	0	---	0.00	30.280 
08:25	61.8	61.8	61.8	92	59.4	0	0	---	0.00	30.280 
08:30	62.6	62.6	62.6	90	59.6	0	0	---	0.00	30.289 
08:35	63.7	63.7	63.7	88	60.1	0	0	---	0.00	30.289 
08:40	64.2	64.2	64.2	86	59.9	0	0	---	0.00	30.289 
08:45	64.5	64.5	64.5	85	59.9	0	0	---	0.00	30.288 
08:50	64.8	64.8	64.8	84	59.8	0	0	---	0.00	30.288 
08:55	65.3	65.3	65.3	84	60.3	0	0	---	0.00	30.288 
09:00	65.8	65.8	65.8	83	60.5	0	2	112	0.00	30.286 
09:05	66.1	66.1	66.1	82	60.4	0	0	---	0.00	30.286 
09:10	66.8	66.8	66.8	82	61.1	0	1	112	0.00	30.286 
09:15	67.1	67.1	67.1	80	60.7	0	0	---	0.00	30.288 
09:20	67.8	67.8	67.8	79	61.0	0	1	112	0.00	30.288 
09:25	68.4	68.4	68.4	78	61.3	0	1	112	0.00	30.288 
09:30	68.9	68.9	68.9	77	61.4	0	1	112	0.00	30.283 
09:35	69.6	69.6	69.6	75	61.3	0	2	112	0.00	30.283 
09:40	70.3	70.3	70.3	74	61.6	0	2	112	0.00	30.283 
09:45	70.9	70.9	70.9	72	61.4	0	1	112	0.00	30.281 
09:50	71.5	71.5	71.5	70	61.2	0	3	112	0.00	30.281 
09:55	72.1	72.1	72.1	69	61.4	0	1	112	0.00	30.281 
10:00	72.8	72.8	72.8	67	61.2	0	1	112	0.00	30.275 
10:05	73.5	73.5	73.5	68	62.3	0	2	112	0.00	30.275 
10:10	74.0	74.0	74.0	65	61.5	0	2	112	0.00	30.275 
10:15	74.6	74.6	74.6	64	61.6	0	2	112	0.00	30.281 
10:20	75.1	75.1	77.1	65	62.5	0	2	112	0.00	30.281 
10:25	76.0	76.0	78.0	62	62.0	0	2	112	0.00	30.281 
10:30	76.7	76.7	78.5	61	62.2	0	2	112	0.00	30.280 
10:35	77.0	77.0	78.8	59	61.6	1	2	112	0.00	30.280 
10:40	77.6	77.6	79.2	57	61.1	1	3	112	0.00	30.280 
10:45	77.9	77.9	79.4	56	60.9	1	3	135	0.00	30.276 
10:50	78.1	78.1	79.6	56	61.1	1	4	270	0.00	30.276 
10:55	78.1	78.1	79.5	54	60.1	1	4	270	0.00	30.276 
11:00	78.5	78.5	79.9	56	61.5	1	3	270	0.00	30.280 
11:05	78.8	78.8	80.1	54	60.7	0	2	315	0.00	30.280 
11:10	79.8	79.8	81.0	54	61.7	0	2	315	0.00	30.280 
11:15	80.5	80.5	81.5	52	61.2	0	2	315	0.00	30.277 
11:20	81.1	81.1	82.0	51	61.2	0	2	315	0.00	30.277 
11:25	81.4	81.4	82.4	52	62.1	0	2	315	0.00	30.277 
11:30	81.8	81.8	82.4	49	60.7	1	3	315	0.00	30.272 
11:35	81.8	81.8	82.3	48	60.2	2	3	292	0.00	30.272 
11:40	81.8	81.8	82.3	48	60.2	2	4	292	0.00	30.272 
11:45	81.8	81.8	82.4	49	60.7	1	3	270	0.00	30.277 
11:50	82.2	82.2	82.5	47	59.9	1	4	270	0.00	30.277 
11:55	82.2	82.2	82.5	47	59.9	1	3	270	0.00	30.277 
12:00	82.4	82.4	82.7	47	60.1	1	3	270	0.00	30.277 
12:05	82.6	82.6	83.0	47	60.3	1	3	270	0.00	30.277 
12:10	83.2	83.2	83.6	47	60.8	0	2	292	0.00	30.277 
12:15	83.6	83.6	83.9	46	60.6	0	2	292	0.00	30.276 
12:20	84.0	84.0	84.3	46	61.0	1	3	292	0.00	30.276 
12:25	84.0	84.0	84.5	47	61.6	1	3	292	0.00	30.276 
12:30	84.0	84.0	84.0	44	59.7	2	4	292	0.00	30.266 
12:35	84.0	84.0	84.1	45	60.3	2	3	292	0.00	30.266 
12:40	84.1	84.1	83.9	43	59.2	1	2	292	0.00	30.266 
12:45	84.5	84.5	84.5	44	60.2	1	3	292	0.00	30.264 
12:50	84.7	84.7	84.4	42	59.0	1	2	292	0.00	30.264 
12:55	84.9	84.9	84.4	41	58.5	2	3	292	0.00	30.264 
13:00	84.7	84.7	84.6	43	59.7	1	4	292	0.00	30.258 
13:05	84.9	84.9	85.0	44	60.5	1	2	292	0.00	30.258 
13:10	85.1	85.1	84.6	41	58.7	1	5	292	0.00	30.258 
13:15	85.3	85.3	85.0	42	59.6	1	4	270	0.00	30.251 
13:20	85.1	85.1	85.0	43	60.1	2	4	270	0.00	30.251 
13:25	85.3	85.3	85.2	43	60.2	1	2	270	0.00	30.251 
13:30	85.7	85.7	86.0	44	61.2	0	3	270	0.00	30.245 
13:35	86.1	86.1	85.6	40	58.9	2	5	270	0.00	30.245 
13:40	85.7	85.7	85.3	41	59.3	2	4	270	0.00	30.245 
13:45	85.5	85.5	85.3	42	59.8	2	6	270	0.00	30.245 
13:50	85.7	85.7	85.5	42	59.9	1	4	270	0.00	30.245 
13:55	86.1	86.1	85.6	40	58.9	1	3	270	0.00	30.245 
14:00	85.9	85.9	85.3	40	58.7	2	5	270	0.00	30.243 
14:05	85.5	85.5	85.1	41	59.1	1	4	270	0.00	30.243 
14:10	85.5	85.5	85.1	41	59.1	2	5	292	0.00	30.243 
14:15	85.7	85.7	85.3	41	59.3	2	5	292	0.00	30.241 
14:20	85.9	85.9	85.3	40	58.7	2	4	270	0.00	30.241 
14:25	85.7	85.7	85.5	42	59.9	1	4	270	0.00	30.241 
14:30	86.1	86.1	85.4	39	58.2	1	4	270	0.00	30.235 
14:35	86.1	86.1	85.6	40	58.9	2	5	270	0.00	30.235 
14:40	85.9	85.9	85.1	39	58.0	2	7	270	0.00	30.235 
14:45	85.9	85.9	84.9	38	57.3	2	5	315	0.00	30.230 
14:50	86.1	86.1	85.4	39	58.2	1	4	315	0.00	30.230 
14:55	86.3	86.3	85.6	39	58.4	2	5	315	0.00	30.230 
15:00	86.5	86.5	85.6	38	57.8	2	4	270	0.00	30.223 
15:05	86.3	86.3	85.8	40	59.1	1	4	292	0.00	30.223 
15:10	86.1	86.1	85.4	39	58.2	2	4	292	0.00	30.223 
15:15	86.3	86.3	85.6	39	58.4	2	4	292	0.00	30.219 
15:20	86.5	86.5	85.8	39	58.6	1	3	292	0.00	30.219 
15:25	86.7	86.7	85.8	38	58.0	2	5	292	0.00	30.219 
15:30	86.7	86.7	85.8	38	58.0	2	4	292	0.00	30.216 
15:35	86.7	86.7	85.8	38	58.0	2	4	292	0.00	30.216 
15:40	86.5	86.5	85.4	37	57.1	1	2	292	0.00	30.216 
15:45	86.7	86.7	86.0	39	58.7	1	4	292	0.00	30.205 
15:50	86.5	86.5	86.0	40	59.3	2	5	292	0.00	30.205 
15:55	87.0	87.0	86.6	40	59.7	1	3	292	0.00	30.205 
16:00	87.2	87.2	86.9	40	59.9	1	3	292	0.00	30.203 
16:05	87.4	87.4	86.9	39	59.4	1	3	292	0.00	30.203 
16:10	87.6	87.6	87.1	39	59.5	1	3	292	0.00	30.203 
16:15	87.6	87.6	87.4	40	60.3	1	2	292	0.00	30.200 
16:20	87.6	87.6	87.1	39	59.5	1	3	292	0.00	30.200 
16:25	87.6	87.6	87.1	39	59.5	0	2	292	0.00	30.200 
16:30	87.6	87.6	87.1	39	59.5	1	3	315	0.00	30.198 
16:35	87.6	87.6	86.9	38	58.8	0	2	0	0.00	30.198 
16:40	87.4	87.4	86.7	38	58.6	1	2	0	0.00	30.198 
16:45	87.2	87.2	86.6	39	59.2	0	2	0	0.00	30.196 
16:50	87.4	87.4	86.9	39	59.4	0	2	0	0.00	30.196 
16:55	87.2	87.2	86.4	38	58.5	1	4	292	0.00	30.196 
17:00	86.7	86.7	86.0	39	58.7	1	3	315	0.00	30.191 
17:05	86.7	86.7	86.3	40	59.5	1	3	315	0.00	30.191 
17:10	87.0	87.0	86.9	41	60.4	0	3	315	0.00	30.191 
17:15	87.2	87.2	87.1	41	60.6	1	4	315	0.00	30.187 
17:20	87.2	87.2	86.6	39	59.2	1	5	0	0.00	30.187 
17:25	87.0	87.0	86.9	41	60.4	1	3	338	0.00	30.187 
17:30	87.0	87.0	86.4	39	59.0	1	3	338	0.00	30.186 
17:35	87.4	87.4	86.9	39	59.4	0	4	292	0.00	30.186 
17:40	87.4	87.4	86.9	39	59.4	0	2	292	0.00	30.186 
17:45	87.4	87.4	87.4	41	60.8	0	2	292	0.00	30.185 
17:50	87.2	87.2	86.9	40	59.9	1	2	292	0.00	30.185 
17:55	87.2	87.2	86.9	40	59.9	0	2	292	0.00	30.185 
18:00	87.2	87.2	87.1	41	60.6	0	1	292	0.00	30.176 
18:05	87.2	87.2	86.9	40	59.9	0	2	292	0.00	30.176 
18:10	86.7	86.7	86.5	41	60.1	0	2	292	0.00	30.176 
18:15	86.1	86.1	85.6	40	58.9	1	3	338	0.00	30.179 
18:20	85.7	85.7	85.3	41	59.3	1	2	338	0.00	30.179 
18:25	85.3	85.3	85.0	42	59.6	1	3	338	0.00	30.179 
18:30	84.9	84.9	84.6	42	59.2	1	2	338	0.00	30.177 
18:35	84.7	84.7	84.6	43	59.7	0	2	338	0.00	30.177 
18:40	84.5	84.5	84.3	43	59.5	0	3	315	0.00	30.177 
18:45	84.3	84.3	84.1	43	59.3	1	2	315	0.00	30.176 
18:50	84.1	84.1	83.9	43	59.2	0	1	315	0.00	30.176 
18:55	84.0	84.0	84.0	44	59.7	0	2	315	0.00	30.176 
19:00	84.0	84.0	84.0	44	59.7	0	2	315	0.00	30.176 
19:05	83.8	83.8	83.6	43	58.9	1	2	315	0.00	30.176 
19:10	83.6	83.6	83.4	43	58.7	0	2	338	0.00	30.176 
19:15	83.4	83.4	83.2	43	58.5	0	2	338	0.00	30.174 
19:20	83.2	83.2	83.1	44	59.0	0	2	338	0.00	30.174 
19:25	83.0	83.0	82.9	44	58.8	0	2	338	0.00	30.174 
19:30	83.0	83.0	82.9	44	58.8	0	1	338	0.00	30.178 
19:35	82.8	82.8	82.9	45	59.3	0	1	338	0.00	30.178 
19:40	82.6	82.6	82.7	45	59.1	0	1	338	0.00	30.178 
19:45	82.4	82.4	82.6	46	59.5	0	1	338	0.00	30.177 
19:50	82.2	82.2	82.4	46	59.3	0	1	338	0.00	30.177 
19:55	82.0	82.0	82.3	47	59.8	0	0	---	0.00	30.177 
20:00	81.8	81.8	82.1	47	59.6	0	0	---	0.00	30.179 
20:05	81.4	81.4	81.9	48	59.8	0	0	---	0.00	30.179 
20:10	81.2	81.2	81.8	49	60.2	0	0	---	0.00	30.179 
20:15	80.9	80.9	81.6	50	60.5	0	0	---	0.00	30.175 
20:20	80.5	80.5	81.3	50	60.1	0	0	---	0.00	30.175 
20:25	80.1	80.1	81.0	51	60.3	0	0	---	0.00	30.175 
20:30	79.6	79.6	80.6	52	60.4	0	0	---	0.00	30.170 
20:35	79.2	79.2	80.4	53	60.6	0	0	---	0.00	30.170 
20:40	78.6	78.6	79.9	54	60.5	0	0	---	0.00	30.170 
20:45	78.3	78.3	79.7	54	60.3	0	0	---	0.00	30.174 
20:50	77.9	77.9	79.4	56	60.9	0	0	---	0.00	30.174 
20:55	77.6	77.6	79.2	56	60.6	0	0	---	0.00	30.174 
21:00	77.2	77.2	78.9	57	60.8	0	0	---	0.00	30.176 
21:05	77.0	77.0	78.8	58	61.1	0	0	---	0.00	30.176 
21:10	76.7	76.7	78.5	60	61.7	0	0	---	0.00	30.176 
21:15	76.3	76.3	78.2	61	61.8	0	0	---	0.00	30.172 
21:20	76.0	76.0	78.0	62	62.0	0	0	---	0.00	30.172 
21:25	75.8	75.8	77.8	62	61.8	0	0	---	0.00	30.172 
21:30	75.3	75.3	77.4	64	62.3	0	0	---	0.00	30.182 
21:35	74.9	74.9	74.9	65	62.3	0	0	---	0.00	30.182 
21:40	74.4	74.4	74.4	66	62.3	0	0	---	0.00	30.182 
21:45	74.2	74.2	74.2	66	62.1	0	0	---	0.00	30.187 
21:50	73.9	73.9	73.9	67	62.2	0	0	---	0.00	30.187 
21:55	73.7	73.7	73.7	68	62.5	0	0	---	0.00	30.187 
22:00	73.3	73.3	73.3	69	62.5	0	0	---	0.00	30.192 
22:05	73.0	73.0	73.0	70	62.6	0	0	---	0.00	30.192 
22:10	72.8	72.8	72.8	70	62.4	0	0	---	0.00	30.192 
22:15	72.5	72.5	72.5	71	62.5	0	0	---	0.00	30.182 
22:20	72.3	72.3	72.3	72	62.8	0	0	---	0.00	30.182 
22:25	72.1	72.1	72.1	73	63.0	0	0	---	0.00	30.182 
22:30	71.8	71.8	71.8	74	63.1	0	0	---	0.00	30.189 
22:35	71.6	71.6	71.6	75	63.2	0	0	---	0.00	30.189 
22:40	71.3	71.3	71.3	76	63.3	0	0	---	0.00	30.189 
22:45	71.1	71.1	71.1	77	63.5	0	0	---	0.00	30.186 
22:50	70.9	70.9	70.9	78	63.7	0	0	---	0.00	30.186 
22:55	70.6	70.6	70.6	78	63.4	0	0	---	0.00	30.186 
23:00	70.4	70.4	70.4	79	63.6	0	0	---	0.00	30.193 
23:05	70.4	70.4	70.4	79	63.6	0	0	---	0.00	30.193 
23:10	70.3	70.3	70.3	80	63.8	0	0	---	0.00	30.193 
23:15	70.1	70.1	70.1	80	63.6	0	0	---	0.00	30.195 
23:20	69.9	69.9	69.9	81	63.8	0	0	---	0.00	30.195 
23:25	69.8	69.8	69.8	81	63.7	0	0	---	0.00	30.195 
23:30	69.6	69.6	69.6	81	63.5	0	0	---	0.00	30.195 
23:35	69.4	69.4	69.4	81	63.3	0	0	---	0.00	30.195 
23:40	69.4	69.4	69.4	82	63.7	0	0	---	0.00	30.195 
23:45	69.3	69.3	69.3	83	63.9	0	1	338	0.00	30.196 
23:50	69.3	69.3	69.3	83	63.9	0	0	---	0.00	30.196 
23:55	69.4	69.4	69.4	83	64.0	0	0	---	0.00	30.196 

CoCoRaHS
IN-AL-39
A2 Web Hosting
Creative Commons License
GoDaddy
search engine by freefind advanced

loaded 2018-11-17 06:56:16 • last modified 2010-11-18 10:43:29
Privacy PolicyDisclaimer
• wx.awcolley.com is powered by PmWiki v.2002016 •
• all content (unless otherwise noted) © 2018 A W Colley